createdAt,value
2023-07-17T00:00:20.849Z,0.22
2023-07-17T00:02:00.609Z,0.21
2023-07-17T00:03:40.371Z,0.19
2023-07-17T00:05:20.173Z,0.18
2023-07-17T00:06:59.907Z,0.18
2023-07-17T00:08:39.679Z,0.19
2023-07-17T00:10:19.579Z,0.19
2023-07-17T00:11:59.211Z,0.18
2023-07-17T00:13:39.000Z,0.21
2023-07-17T00:15:18.736Z,0.2
2023-07-17T00:16:58.532Z,0.2
2023-07-17T00:18:38.281Z,0.18
2023-07-17T00:20:18.045Z,0.21
2023-07-17T00:21:57.814Z,0.18
2023-07-17T00:23:37.587Z,0.2
2023-07-17T00:25:17.365Z,0.21
2023-07-17T00:26:57.107Z,0.2
2023-07-17T00:28:36.908Z,0.19
2023-07-17T00:30:16.655Z,0.18
2023-07-17T00:31:56.423Z,0.18
2023-07-17T00:33:36.196Z,0.18
2023-07-17T00:35:15.955Z,0.18
2023-07-17T00:36:55.729Z,0.2
2023-07-17T00:38:35.496Z,0.17
2023-07-17T00:40:15.254Z,0.2
2023-07-17T00:41:55.025Z,0.19
2023-07-17T00:43:34.789Z,0.19
2023-07-17T00:45:14.564Z,0.2
2023-07-17T00:46:54.333Z,0.2
2023-07-17T00:48:34.099Z,0.17
2023-07-17T00:50:13.851Z,0.2
2023-07-17T00:51:53.631Z,0.18
2023-07-17T00:53:33.445Z,0.19
2023-07-17T00:55:13.173Z,0.21
2023-07-17T00:56:52.931Z,0.21
2023-07-17T00:58:32.701Z,0.2
2023-07-17T01:00:12.479Z,0.19
2023-07-17T01:01:52.242Z,0.19
2023-07-17T01:03:32.003Z,0.21
2023-07-17T01:05:11.776Z,0.19
2023-07-17T01:06:51.568Z,0.21
2023-07-17T01:08:31.292Z,0.17
2023-07-17T01:10:11.086Z,0.18
2023-07-17T01:11:50.841Z,0.18
2023-07-17T01:13:30.602Z,0.2
2023-07-17T01:15:10.382Z,0.2
2023-07-17T01:16:50.140Z,0.21
2023-07-17T01:18:29.903Z,0.21
2023-07-17T01:20:09.679Z,0.18
2023-07-17T01:21:49.442Z,0.18
2023-07-17T01:23:29.226Z,0.19
2023-07-17T01:25:08.989Z,0.19
2023-07-17T01:26:48.752Z,0.21
2023-07-17T01:28:28.505Z,0.21
2023-07-17T01:30:08.286Z,0.19
2023-07-17T01:31:48.051Z,0.19
2023-07-17T01:33:27.820Z,0.22
2023-07-17T01:35:07.825Z,0.21
2023-07-17T01:36:47.366Z,0.22
2023-07-17T01:38:27.133Z,0.23
2023-07-17T01:40:06.894Z,0.22
2023-07-17T01:41:46.659Z,0.23
2023-07-17T01:43:26.431Z,0.22
2023-07-17T01:45:06.196Z,0.26
2023-07-17T01:46:45.961Z,0.26
2023-07-17T01:48:25.742Z,0.28
2023-07-17T01:50:05.502Z,0.24
2023-07-17T01:51:45.261Z,0.28
2023-07-17T01:53:25.026Z,0.29
2023-07-17T01:55:04.822Z,0.28
2023-07-17T01:56:44.573Z,0.35
2023-07-17T01:58:24.338Z,0.41
2023-07-17T02:00:04.144Z,0.48
2023-07-17T02:01:43.877Z,0.55
2023-07-17T02:03:23.631Z,0.63
2023-07-17T02:05:03.411Z,0.71
2023-07-17T02:06:43.178Z,0.79
2023-07-17T02:08:22.948Z,0.99
2023-07-17T02:10:02.703Z,1.14
2023-07-17T02:11:42.467Z,1.46
2023-07-17T02:13:22.246Z,1.81
2023-07-17T02:15:02.007Z,2.16
2023-07-17T02:16:41.779Z,2.6
2023-07-17T02:18:21.545Z,3.1
2023-07-17T02:20:01.318Z,3.72
2023-07-17T02:21:41.072Z,4.48
2023-07-17T02:23:20.856Z,5.42
2023-07-17T02:25:00.638Z,6.54
2023-07-17T02:26:40.383Z,7.72
2023-07-17T02:28:20.170Z,9.17
2023-07-17T02:29:59.953Z,10.82
2023-07-17T02:31:39.690Z,12.62
2023-07-17T02:33:19.453Z,14.84
2023-07-17T02:34:59.222Z,17.51
2023-07-17T02:36:38.991Z,20.54
2023-07-17T02:38:18.753Z,23.87
2023-07-17T02:39:58.527Z,25.83
2023-07-17T02:41:38.287Z,30.08
2023-07-17T02:43:18.054Z,29.53
2023-07-17T02:44:57.828Z,26.87
2023-07-17T02:46:37.589Z,26.88
2023-07-17T02:48:17.345Z,26.9
2023-07-17T02:49:57.152Z,26.9
2023-07-17T02:51:36.902Z,26.92
2023-07-17T02:53:16.659Z,26.92
2023-07-17T02:54:56.422Z,26.93
2023-07-17T02:56:36.201Z,26.94
2023-07-17T02:58:15.965Z,26.93
2023-07-17T02:59:55.729Z,26.94
2023-07-17T03:01:35.504Z,26.95
2023-07-17T03:03:15.271Z,26.94
2023-07-17T03:04:55.043Z,26.94
2023-07-17T03:06:34.813Z,26.95
2023-07-17T03:08:14.575Z,26.97
2023-07-17T03:09:54.346Z,26.96
2023-07-17T03:11:34.103Z,26.97
2023-07-17T03:13:13.879Z,26.97
2023-07-17T03:14:53.634Z,26.99
2023-07-17T03:16:33.416Z,27
2023-07-17T03:18:13.181Z,27.01
2023-07-17T03:19:52.938Z,27.03
2023-07-17T03:21:32.706Z,27.03
2023-07-17T03:23:12.484Z,27.04
2023-07-17T03:24:52.259Z,27.06
2023-07-17T03:26:32.011Z,27.06
2023-07-17T03:28:11.795Z,27.08
2023-07-17T03:29:51.561Z,27.1
2023-07-17T03:31:31.329Z,27.12
2023-07-17T03:33:11.106Z,27.14
2023-07-17T03:34:50.873Z,27.15
2023-07-17T03:36:30.635Z,27.22
2023-07-17T03:38:10.409Z,27.24
2023-07-17T03:39:50.201Z,27.13
2023-07-17T03:41:29.947Z,48.77
2023-07-17T03:43:09.713Z,39.21
2023-07-17T03:44:49.481Z,27.38
2023-07-17T03:46:29.257Z,27.39
2023-07-17T03:48:09.047Z,27.41
2023-07-17T03:49:48.827Z,27.42
2023-07-17T03:51:28.653Z,27.45
2023-07-17T03:53:08.340Z,27.47
2023-07-17T03:54:48.112Z,27.51
2023-07-17T03:56:27.880Z,27.55
2023-07-17T03:58:07.678Z,27.6
2023-07-17T03:59:47.446Z,27.65
2023-07-17T04:01:27.208Z,27.69
2023-07-17T04:03:06.973Z,27.71
2023-07-17T04:04:46.728Z,27.72
2023-07-17T04:06:26.513Z,27.72
2023-07-17T04:08:06.278Z,27.77
2023-07-17T04:09:46.058Z,27.82
2023-07-17T04:11:25.815Z,27.84
2023-07-17T04:13:05.589Z,27.85
2023-07-17T04:14:45.364Z,27.89
2023-07-17T04:16:25.129Z,27.93
2023-07-17T04:18:04.897Z,27.99
2023-07-17T04:19:44.679Z,28.07
2023-07-17T04:21:24.443Z,28.17
2023-07-17T04:23:04.219Z,28.26
2023-07-17T04:24:43.987Z,28.35
2023-07-17T04:26:23.757Z,28.39
2023-07-17T04:28:03.550Z,28.42
2023-07-17T04:29:43.294Z,28.45
2023-07-17T04:31:23.061Z,28.46
2023-07-17T04:33:02.841Z,28.53
2023-07-17T04:34:42.606Z,28.54
2023-07-17T04:36:22.413Z,28.56
2023-07-17T04:38:02.137Z,28.57
2023-07-17T04:39:41.902Z,28.59
2023-07-17T04:41:21.699Z,28.61
2023-07-17T04:43:01.458Z,61.9
2023-07-17T04:44:41.238Z,28.79
2023-07-17T04:46:20.999Z,28.83
2023-07-17T04:48:00.835Z,28.88
2023-07-17T04:49:40.534Z,28.96
2023-07-17T04:51:20.314Z,29.08
2023-07-17T04:53:00.095Z,28.58
2023-07-17T04:54:39.863Z,28.73
2023-07-17T04:56:19.631Z,28.87
2023-07-17T04:57:59.392Z,28.84
2023-07-17T04:59:39.185Z,29.47
2023-07-17T05:01:18.935Z,30.15
2023-07-17T05:02:58.693Z,30.61
2023-07-17T05:04:38.530Z,30.89
2023-07-17T05:06:18.251Z,31.41
2023-07-17T05:07:58.012Z,32.43
2023-07-17T05:09:37.783Z,34.53
2023-07-17T05:11:17.556Z,82.05
2023-07-17T05:12:57.320Z,80.42
2023-07-17T05:14:37.096Z,80.87
2023-07-17T05:16:16.858Z,81.37
2023-07-17T05:17:56.639Z,81.03
2023-07-17T05:19:36.409Z,80.23
2023-07-17T05:21:16.180Z,80.57
2023-07-17T05:22:55.941Z,80.42
2023-07-17T05:24:35.729Z,79.54
2023-07-17T05:26:15.505Z,79.29
2023-07-17T05:27:55.253Z,79.35
2023-07-17T05:29:35.095Z,79.62
2023-07-17T05:31:14.841Z,80.21
2023-07-17T05:32:54.574Z,80.04
2023-07-17T05:34:34.339Z,80.46
2023-07-17T05:36:14.124Z,83.66
2023-07-17T05:37:53.880Z,83.79
2023-07-17T05:39:33.646Z,83.31
2023-07-17T05:41:13.425Z,79.87
2023-07-17T05:42:53.194Z,80.12
2023-07-17T05:44:32.974Z,79.51
2023-07-17T05:46:12.729Z,83.37
2023-07-17T05:47:52.511Z,82.86
2023-07-17T05:49:32.274Z,82.8
2023-07-17T05:51:12.094Z,82.85
2023-07-17T05:52:51.817Z,82.83
2023-07-17T05:54:31.589Z,82.77
2023-07-17T05:56:11.363Z,82.82
2023-07-17T05:57:51.150Z,82.81
2023-07-17T05:59:30.978Z,82.94
2023-07-17T06:01:10.678Z,82.94
2023-07-17T06:02:50.434Z,82.97
2023-07-17T06:04:30.215Z,83.01
2023-07-17T06:06:09.982Z,83.14
2023-07-17T06:07:49.758Z,83.21
2023-07-17T06:09:29.530Z,83.28
2023-07-17T06:11:09.291Z,83.19
2023-07-17T06:12:49.073Z,83.13
2023-07-17T06:14:28.871Z,83.01
2023-07-17T06:16:08.601Z,82.82
2023-07-17T06:17:48.442Z,83.04
2023-07-17T06:19:28.175Z,83.14
2023-07-17T06:21:07.920Z,83.19
2023-07-17T06:22:47.702Z,83.21
2023-07-17T06:24:27.483Z,83.12
2023-07-17T06:26:07.259Z,83.23
2023-07-17T06:27:47.029Z,83.2
2023-07-17T06:29:26.769Z,83.37
2023-07-17T06:31:06.607Z,83.4
2023-07-17T06:32:46.329Z,83.37
2023-07-17T06:34:26.070Z,83.48
2023-07-17T06:36:05.874Z,83.5
2023-07-17T06:37:45.636Z,83.46
2023-07-17T06:39:25.398Z,83.33
2023-07-17T06:41:05.162Z,83.24
2023-07-17T06:42:44.938Z,83.34
2023-07-17T06:44:24.721Z,83.23
2023-07-17T06:46:04.478Z,83.16
2023-07-17T06:47:44.257Z,83.05
2023-07-17T06:49:24.031Z,81.71
2023-07-17T06:51:03.811Z,83
2023-07-17T06:52:43.566Z,83.48
2023-07-17T06:54:23.327Z,83.66
2023-07-17T06:56:03.106Z,81
2023-07-17T06:57:42.871Z,82.67
2023-07-17T06:59:22.649Z,80.83
2023-07-17T07:01:02.485Z,82.03
2023-07-17T07:02:42.185Z,81.55
2023-07-17T07:04:21.972Z,82.78
2023-07-17T07:06:01.786Z,81.06
2023-07-17T07:07:41.500Z,85.59
2023-07-17T07:09:21.275Z,83.6
2023-07-17T07:11:01.072Z,85.54
2023-07-17T07:12:40.811Z,84.74
2023-07-17T07:14:20.575Z,81.75
2023-07-17T07:16:00.474Z,83.4
2023-07-17T07:17:40.125Z,81.31
2023-07-17T07:19:19.898Z,82
2023-07-17T07:20:59.668Z,81.43
2023-07-17T07:22:39.435Z,81.48
2023-07-17T07:24:19.200Z,80.96
2023-07-17T07:25:58.977Z,81.66
2023-07-17T07:27:38.741Z,81.96
2023-07-17T07:29:18.515Z,82.77
2023-07-17T07:30:58.435Z,81.69
2023-07-17T07:32:38.057Z,85.26
2023-07-17T07:34:17.826Z,85.06
2023-07-17T07:35:57.611Z,84.36
2023-07-17T07:37:37.378Z,84.08
2023-07-17T07:39:17.135Z,84
2023-07-17T07:40:56.909Z,84.02
2023-07-17T07:42:36.675Z,84.11
2023-07-17T07:44:16.476Z,83.98
2023-07-17T07:45:56.222Z,83.96
2023-07-17T07:47:36.017Z,83.9
2023-07-17T07:49:15.760Z,83.8
2023-07-17T07:50:55.545Z,83.67
2023-07-17T07:52:35.302Z,83.51
2023-07-17T07:54:15.065Z,83.46
2023-07-17T07:55:54.842Z,83.26
2023-07-17T07:57:34.625Z,83.33
2023-07-17T07:59:14.394Z,83.35
2023-07-17T08:00:54.184Z,83.29
2023-07-17T08:02:33.938Z,83.32
2023-07-17T08:04:13.709Z,83.16
2023-07-17T08:05:53.463Z,83.12
2023-07-17T08:07:33.258Z,83.36
2023-07-17T08:09:13.013Z,84.01
2023-07-17T08:10:52.776Z,83.97
2023-07-17T08:12:32.601Z,83.9
2023-07-17T08:14:12.354Z,83.76
2023-07-17T08:15:52.084Z,83.56
2023-07-17T08:17:31.859Z,83.55
2023-07-17T08:19:11.632Z,83.45
2023-07-17T08:20:51.461Z,83.38
2023-07-17T08:22:31.176Z,83.46
2023-07-17T08:24:11.269Z,83.52
2023-07-17T08:25:50.937Z,83.57
2023-07-17T08:27:30.669Z,83.7
2023-07-17T08:29:10.396Z,84.09
2023-07-17T08:30:50.222Z,83.98
2023-07-17T08:32:29.910Z,83.78
2023-07-17T08:34:09.754Z,83.67
2023-07-17T08:35:49.395Z,83.67
2023-07-17T08:37:29.307Z,83.83
2023-07-17T08:39:09.072Z,83.88
2023-07-17T08:40:48.797Z,83.77
2023-07-17T08:42:28.692Z,83.89
2023-07-17T08:44:08.286Z,83.69
2023-07-17T08:45:48.125Z,83.49
2023-07-17T08:47:27.968Z,83.43
2023-07-17T08:49:07.538Z,83.23
2023-07-17T08:50:47.440Z,83.25
2023-07-17T08:52:27.037Z,83.14
2023-07-17T08:54:06.812Z,82.84
2023-07-17T08:55:46.771Z,82.54
2023-07-17T08:57:26.513Z,82.49
2023-07-17T08:59:06.279Z,82.63
2023-07-17T09:00:45.890Z,82.88
2023-07-17T09:02:25.865Z,83.12
2023-07-17T09:04:05.639Z,83
2023-07-17T09:05:45.295Z,82.93
2023-07-17T09:07:25.174Z,82.84
2023-07-17T09:09:04.953Z,82.73
2023-07-17T09:10:44.729Z,82.74
2023-07-17T09:12:24.476Z,83.37
2023-07-17T09:14:04.191Z,83.33
2023-07-17T09:15:44.052Z,83.51
2023-07-17T09:17:23.634Z,83.65
2023-07-17T09:19:03.577Z,83.34
2023-07-17T09:20:43.330Z,83.37
2023-07-17T09:22:23.177Z,83.04
2023-07-17T09:24:02.924Z,83.11
2023-07-17T09:25:42.596Z,83.22
2023-07-17T09:27:22.484Z,83.48
2023-07-17T09:29:02.202Z,83.31
2023-07-17T09:30:42.015Z,83.39
2023-07-17T09:32:21.527Z,75.79
2023-07-17T09:34:01.348Z,83.44
2023-07-17T09:35:41.335Z,83.3
2023-07-17T09:37:21.142Z,83.46
2023-07-17T09:39:00.926Z,83.26
2023-07-17T09:40:40.583Z,83.24
2023-07-17T09:42:20.359Z,78.12
2023-07-17T09:43:59.957Z,84.48
2023-07-17T09:45:39.841Z,83.85
2023-07-17T09:47:19.620Z,83.41
2023-07-17T09:48:59.432Z,83.13
2023-07-17T09:50:39.198Z,83.18
2023-07-17T09:52:18.953Z,79.47
2023-07-17T09:53:58.571Z,77.48
2023-07-17T09:55:38.566Z,84.88
2023-07-17T09:57:18.176Z,84.25
2023-07-17T09:58:57.937Z,84.36
2023-07-17T10:00:37.781Z,79.43
2023-07-17T10:02:17.410Z,79.69
2023-07-17T10:03:57.325Z,80.81
2023-07-17T10:05:37.041Z,87.34
2023-07-17T10:07:16.704Z,85.14
2023-07-17T10:08:56.619Z,81.26
2023-07-17T10:10:36.427Z,81.62
2023-07-17T10:12:16.185Z,81.96
2023-07-17T10:13:55.865Z,86.65
2023-07-17T10:15:35.742Z,81.17
2023-07-17T10:17:15.402Z,81.51
2023-07-17T10:18:55.219Z,82.13
2023-07-17T10:20:34.867Z,82.04
2023-07-17T10:22:14.643Z,81.58
2023-07-17T10:23:54.434Z,81.03
2023-07-17T10:25:34.186Z,81.12
2023-07-17T10:27:13.964Z,81.07
2023-07-17T10:28:53.787Z,81.28
2023-07-17T10:30:33.546Z,81.28
2023-07-17T10:32:13.392Z,80.71
2023-07-17T10:33:53.087Z,80.39
2023-07-17T10:35:32.810Z,80.69
2023-07-17T10:37:12.620Z,82.32
2023-07-17T10:38:52.551Z,87.58
2023-07-17T10:40:32.132Z,86.97
2023-07-17T10:42:11.901Z,85.4
2023-07-17T10:43:51.664Z,84.49
2023-07-17T10:45:31.465Z,83.55
2023-07-17T10:47:11.203Z,77.83
2023-07-17T10:48:50.989Z,80.75
2023-07-17T10:50:30.899Z,78.8
2023-07-17T10:52:10.669Z,79.64
2023-07-17T10:53:50.287Z,80.89
2023-07-17T10:55:30.097Z,81.39
2023-07-17T10:57:09.830Z,81.12
2023-07-17T10:58:49.623Z,81.22
2023-07-17T11:00:29.374Z,81.18
2023-07-17T11:02:09.217Z,81.39
2023-07-17T11:03:49.097Z,81.78
2023-07-17T11:05:28.708Z,82.08
2023-07-17T11:07:08.460Z,82.04
2023-07-17T11:08:48.259Z,81.98
2023-07-17T11:10:28.002Z,82
2023-07-17T11:12:07.782Z,81.82
2023-07-17T11:13:47.537Z,81.75
2023-07-17T11:15:27.321Z,82.05
2023-07-17T11:17:07.062Z,83.02
2023-07-17T11:18:46.870Z,84.17
2023-07-17T11:20:26.666Z,85.6
2023-07-17T11:22:06.518Z,86.9
2023-07-17T11:23:46.219Z,85.37
2023-07-17T11:25:26.014Z,84.07
2023-07-17T11:27:05.740Z,83.09
2023-07-17T11:28:45.533Z,82.94
2023-07-17T11:30:25.251Z,82.81
2023-07-17T11:32:05.036Z,80.79
2023-07-17T11:33:44.784Z,79.32
2023-07-17T11:35:24.560Z,80.58
2023-07-17T11:37:04.459Z,81.8
2023-07-17T11:38:44.107Z,85.35
2023-07-17T11:40:23.870Z,84.08
2023-07-17T11:42:03.720Z,83.47
2023-07-17T11:43:43.531Z,82.7
2023-07-17T11:45:23.193Z,81.18
2023-07-17T11:47:03.024Z,84.22
2023-07-17T11:48:42.727Z,80.42
2023-07-17T11:50:22.492Z,81.19
2023-07-17T11:52:02.417Z,82.28
2023-07-17T11:53:42.041Z,85.54
2023-07-17T11:55:21.807Z,85.33
2023-07-17T11:57:01.566Z,82.67
2023-07-17T11:58:41.335Z,84.24
2023-07-17T12:00:21.212Z,83.69
2023-07-17T12:02:00.992Z,82.99
2023-07-17T12:03:40.738Z,82.25
2023-07-17T12:05:20.539Z,82.04
2023-07-17T12:07:00.337Z,79.71
2023-07-17T12:08:40.109Z,83.94
2023-07-17T12:10:19.823Z,83.48
2023-07-17T12:11:59.747Z,83.37
2023-07-17T12:13:39.394Z,83.24
2023-07-17T12:15:19.286Z,83.02
2023-07-17T12:16:58.960Z,82.61
2023-07-17T12:18:38.778Z,76.93
2023-07-17T12:20:18.551Z,84.36
2023-07-17T12:21:58.126Z,80.26
2023-07-17T12:23:37.907Z,79.19
2023-07-17T12:25:17.854Z,80.14
2023-07-17T12:26:57.627Z,81.26
2023-07-17T12:28:37.342Z,82.14
2023-07-17T12:30:17.105Z,81.25
2023-07-17T12:31:56.858Z,81.61
2023-07-17T12:33:36.610Z,82.03
2023-07-17T12:35:16.456Z,82.64
2023-07-17T12:36:56.265Z,82.85
2023-07-17T12:38:35.932Z,83.58
2023-07-17T12:40:15.644Z,86.09
2023-07-17T12:41:55.476Z,84.19
2023-07-17T12:43:35.315Z,84.02
2023-07-17T12:45:15.050Z,83.56
2023-07-17T12:46:54.929Z,82.7
2023-07-17T12:48:34.713Z,84.23
2023-07-17T12:50:14.235Z,79.74
2023-07-17T12:51:54.066Z,80.76
2023-07-17T12:53:33.795Z,81.23
2023-07-17T12:55:13.598Z,86.42
2023-07-17T12:56:53.413Z,81.79
2023-07-17T12:58:33.096Z,82.05
2023-07-17T13:00:12.935Z,81.93
2023-07-17T13:01:52.687Z,81.87
2023-07-17T13:03:32.447Z,82.76
2023-07-17T13:05:12.221Z,82
2023-07-17T13:06:51.997Z,82.22
2023-07-17T13:08:31.716Z,82.52
2023-07-17T13:10:11.482Z,83.48
2023-07-17T13:11:51.263Z,83.37
2023-07-17T13:13:31.015Z,86.39
2023-07-17T13:15:10.791Z,85.12
2023-07-17T13:16:50.609Z,84.03
2023-07-17T13:18:30.386Z,84.03
2023-07-17T13:20:10.178Z,80.76
2023-07-17T13:21:49.875Z,85.95
2023-07-17T13:23:29.681Z,84.59
2023-07-17T13:25:09.514Z,83.82
2023-07-17T13:26:49.180Z,80.33
2023-07-17T13:28:29.169Z,84.03
2023-07-17T13:30:08.726Z,83.74
2023-07-17T13:31:48.617Z,81.94
2023-07-17T13:33:28.465Z,79.66
2023-07-17T13:35:08.155Z,79.57
2023-07-17T13:36:47.874Z,79.93
2023-07-17T13:38:27.579Z,80.22
2023-07-17T13:40:07.531Z,80.91
2023-07-17T13:41:47.249Z,81.44
2023-07-17T13:43:27.064Z,82.15
2023-07-17T13:45:06.706Z,82.4
2023-07-17T13:46:46.563Z,82.56
2023-07-17T13:48:26.319Z,86.19
2023-07-17T13:50:06.031Z,86.67
2023-07-17T13:51:45.791Z,84.92
2023-07-17T13:53:25.620Z,84.71
2023-07-17T13:55:05.280Z,84.01
2023-07-17T13:56:45.063Z,83.83
2023-07-17T13:58:24.869Z,83.41
2023-07-17T14:00:04.609Z,83
2023-07-17T14:01:44.356Z,77.83
2023-07-17T14:03:24.164Z,84.24
2023-07-17T14:05:03.950Z,79.75
2023-07-17T14:06:43.707Z,80.33
2023-07-17T14:08:23.456Z,81.11
2023-07-17T14:10:03.274Z,81.76
2023-07-17T14:11:43.072Z,82.6
2023-07-17T14:13:22.945Z,85.78
2023-07-17T14:15:02.598Z,84.85
2023-07-17T14:16:42.307Z,83.84
2023-07-17T14:18:22.205Z,83.34
2023-07-17T14:20:01.838Z,83.18
2023-07-17T14:21:41.620Z,83.26
2023-07-17T14:23:21.399Z,83.02
2023-07-17T14:25:01.185Z,83.13
2023-07-17T14:26:41.030Z,83.09
2023-07-17T14:28:20.695Z,78.49
2023-07-17T14:30:00.525Z,78.93
2023-07-17T14:31:40.291Z,81.47
2023-07-17T14:33:20.009Z,81.37
2023-07-17T14:34:59.922Z,81.76
2023-07-17T14:36:39.719Z,85.58
2023-07-17T14:38:19.424Z,85.06
2023-07-17T14:39:59.180Z,84.01
2023-07-17T14:41:38.868Z,83.68
2023-07-17T14:43:18.631Z,80.28
2023-07-17T14:44:58.456Z,83.77
2023-07-17T14:46:38.335Z,84.26
2023-07-17T14:48:17.954Z,83.88
2023-07-17T14:49:57.714Z,83.75
2023-07-17T14:51:37.525Z,83.32
2023-07-17T14:53:17.260Z,83.14
2023-07-17T14:54:57.062Z,82.87
2023-07-17T14:56:36.798Z,82.95
2023-07-17T14:58:16.577Z,83
2023-07-17T14:59:56.347Z,83.29
2023-07-17T15:01:36.196Z,83.16
2023-07-17T15:03:15.929Z,84.4
2023-07-17T15:04:55.710Z,84.14
2023-07-17T15:06:35.424Z,83.96
2023-07-17T15:08:15.210Z,83.69
2023-07-17T15:09:54.955Z,83.57
2023-07-17T15:11:34.732Z,83.25
2023-07-17T15:13:14.516Z,83.25
2023-07-17T15:14:54.281Z,82.69
2023-07-17T15:16:34.068Z,82.46
2023-07-17T15:18:13.836Z,82.47
2023-07-17T15:19:53.575Z,83.01
2023-07-17T15:21:33.438Z,83.08
2023-07-17T15:23:13.119Z,82.35
2023-07-17T15:24:52.895Z,82.85
2023-07-17T15:26:32.661Z,83.02
2023-07-17T15:28:12.481Z,82.95
2023-07-17T15:29:52.231Z,83.28
2023-07-17T15:31:32.002Z,83.11
2023-07-17T15:33:11.761Z,82.14
2023-07-17T15:34:51.538Z,79.93
2023-07-17T15:36:31.433Z,83.61
2023-07-17T15:38:11.058Z,83.42
2023-07-17T15:39:50.829Z,84.01
2023-07-17T15:41:30.642Z,83.67
2023-07-17T15:43:10.378Z,83.7
2023-07-17T15:44:50.147Z,83.67
2023-07-17T15:46:29.907Z,83.31
2023-07-17T15:48:09.668Z,83.38
2023-07-17T15:49:49.477Z,83.33
2023-07-17T15:51:29.257Z,83.3
2023-07-17T15:53:08.994Z,83.12
2023-07-17T15:54:48.784Z,83.22
2023-07-17T15:56:28.532Z,83.24
2023-07-17T15:58:08.311Z,83.35
2023-07-17T15:59:48.122Z,82.68
2023-07-17T16:01:27.845Z,83.14
2023-07-17T16:03:07.656Z,83.39
2023-07-17T16:04:47.393Z,83.44
2023-07-17T16:06:27.263Z,83.4
2023-07-17T16:08:06.927Z,83.32
2023-07-17T16:09:46.696Z,83.35
2023-07-17T16:11:26.505Z,82.71
2023-07-17T16:13:06.251Z,81.21
2023-07-17T16:14:46.103Z,83.8
2023-07-17T16:16:25.895Z,83.79
2023-07-17T16:18:05.614Z,80.67
2023-07-17T16:19:45.339Z,82.13
2023-07-17T16:21:25.113Z,80.48
2023-07-17T16:23:04.887Z,80.62
2023-07-17T16:24:44.639Z,80.87
2023-07-17T16:26:24.422Z,81.01
2023-07-17T16:28:04.209Z,81.75
2023-07-17T16:29:43.940Z,81.9
2023-07-17T16:31:23.718Z,84.94
2023-07-17T16:33:03.506Z,83.28
2023-07-17T16:34:43.300Z,81.19
2023-07-17T16:36:23.170Z,84.31
2023-07-17T16:38:02.808Z,81.15
2023-07-17T16:39:42.585Z,81.39
2023-07-17T16:41:22.343Z,82.1
2023-07-17T16:43:02.261Z,80.51
2023-07-17T16:44:41.977Z,80.29
2023-07-17T16:46:21.678Z,80.28
2023-07-17T16:48:01.454Z,80.05
2023-07-17T16:49:41.202Z,79.81
2023-07-17T16:51:20.964Z,79.47
2023-07-17T16:53:00.767Z,79.75
2023-07-17T16:54:40.500Z,80.35
2023-07-17T16:56:20.275Z,83.9
2023-07-17T16:58:00.041Z,83.96
2023-07-17T16:59:39.828Z,83.87
2023-07-17T17:01:19.583Z,83.68
2023-07-17T17:02:59.375Z,83.57
2023-07-17T17:04:39.128Z,82.53
2023-07-17T17:06:18.905Z,80.37
2023-07-17T17:07:58.671Z,79.97
2023-07-17T17:09:38.506Z,80.66
2023-07-17T17:11:18.229Z,79.56
2023-07-17T17:12:58.023Z,79.31
2023-07-17T17:14:37.765Z,79.01
2023-07-17T17:16:17.529Z,79.43
2023-07-17T17:17:57.295Z,79.15
2023-07-17T17:19:37.065Z,81.51
2023-07-17T17:21:16.846Z,81.25
2023-07-17T17:22:56.610Z,83.46
2023-07-17T17:24:36.421Z,83.17
2023-07-17T17:26:16.144Z,82.8
2023-07-17T17:27:55.916Z,82.55
2023-07-17T17:29:35.826Z,82.39
2023-07-17T17:31:15.472Z,81.19
2023-07-17T17:32:55.426Z,79.01
2023-07-17T17:34:35.011Z,79.36
2023-07-17T17:36:14.881Z,79.37
2023-07-17T17:37:54.554Z,79.32
2023-07-17T17:39:34.317Z,78.91
2023-07-17T17:41:14.100Z,78.18
2023-07-17T17:42:53.859Z,77.62
2023-07-17T17:44:33.650Z,80.1
2023-07-17T17:46:13.457Z,77.37
2023-07-17T17:47:53.176Z,80.18
2023-07-17T17:49:32.947Z,78.03
2023-07-17T17:51:12.706Z,77.91
2023-07-17T17:52:52.516Z,77.37
2023-07-17T17:54:32.331Z,77.36
2023-07-17T17:56:12.021Z,77.85
2023-07-17T17:57:51.894Z,78.22
2023-07-17T17:59:31.612Z,78.47
2023-07-17T18:01:11.336Z,78.36
2023-07-17T18:02:51.099Z,77.85
2023-07-17T18:04:30.878Z,77.49
2023-07-17T18:06:10.634Z,77.58
2023-07-17T18:07:50.410Z,77.4
2023-07-17T18:09:30.175Z,77.16
2023-07-17T18:11:09.960Z,76.61
2023-07-17T18:12:49.729Z,75.94
2023-07-17T18:14:29.506Z,75.54
2023-07-17T18:16:09.273Z,75.4
2023-07-17T18:17:49.045Z,75.92
2023-07-17T18:19:28.885Z,76.12
2023-07-17T18:21:08.591Z,75.85
2023-07-17T18:22:48.357Z,75.08
2023-07-17T18:24:28.125Z,74.79
2023-07-17T18:26:07.941Z,74.44
2023-07-17T18:27:47.662Z,73.65
2023-07-17T18:29:27.426Z,73.19
2023-07-17T18:31:07.185Z,72.86
2023-07-17T18:32:46.970Z,72.31
2023-07-17T18:34:26.736Z,71.46
2023-07-17T18:36:06.537Z,70.35
2023-07-17T18:37:46.353Z,69.19
2023-07-17T18:39:26.052Z,67.44
2023-07-17T18:41:05.837Z,65.16
2023-07-17T18:42:45.631Z,60.49
2023-07-17T18:44:25.374Z,51.36
2023-07-17T18:46:05.161Z,38.88
2023-07-17T18:47:44.929Z,33.82
2023-07-17T18:49:24.670Z,33.45
2023-07-17T18:51:04.428Z,33.32
2023-07-17T18:52:44.246Z,33.31
2023-07-17T18:54:24.005Z,32.54
2023-07-17T18:56:03.766Z,28.42
2023-07-17T18:57:43.530Z,27.79
2023-07-17T18:59:23.289Z,27.74
2023-07-17T19:01:03.058Z,27.71
2023-07-17T19:02:42.844Z,27.67
2023-07-17T19:04:22.585Z,27.65
2023-07-17T19:06:02.361Z,27.62
2023-07-17T19:07:42.124Z,27.59
2023-07-17T19:09:21.899Z,27.57
2023-07-17T19:11:01.662Z,27.55
2023-07-17T19:12:41.464Z,31.37
2023-07-17T19:14:21.198Z,27.5
2023-07-17T19:16:00.962Z,27.47
2023-07-17T19:17:40.727Z,27.42
2023-07-17T19:19:20.500Z,27.43
2023-07-17T19:21:00.284Z,27.42
2023-07-17T19:22:40.057Z,27.4
2023-07-17T19:24:19.787Z,27.38
2023-07-17T19:25:59.569Z,27.35
2023-07-17T19:27:39.340Z,27.33
2023-07-17T19:29:19.125Z,27.31
2023-07-17T19:30:58.882Z,27.26
2023-07-17T19:32:38.626Z,27.2
2023-07-17T19:34:18.410Z,27.16
2023-07-17T19:35:58.211Z,27.13
2023-07-17T19:37:37.953Z,27.09
2023-07-17T19:39:17.709Z,26.93
2023-07-17T19:40:57.483Z,25.32
2023-07-17T19:42:37.236Z,23.19
2023-07-17T19:44:17.009Z,20.73
2023-07-17T19:45:56.791Z,18.16
2023-07-17T19:47:36.536Z,15.87
2023-07-17T19:49:16.325Z,14.36
2023-07-17T19:50:56.081Z,13.37
2023-07-17T19:52:35.859Z,12.34
2023-07-17T19:54:15.651Z,11.16
2023-07-17T19:55:55.514Z,9.84
2023-07-17T19:57:35.179Z,8.43
2023-07-17T19:59:14.908Z,7.04
2023-07-17T20:00:54.682Z,5.79
2023-07-17T20:02:34.461Z,4.73
2023-07-17T20:04:14.336Z,3.86
2023-07-17T20:05:53.983Z,3.13
2023-07-17T20:07:33.810Z,2.49
2023-07-17T20:09:13.569Z,2.03
2023-07-17T20:10:53.363Z,1.6
2023-07-17T20:12:33.145Z,1.26
2023-07-17T20:14:12.827Z,1.03
2023-07-17T20:15:52.600Z,0.83
2023-07-17T20:17:32.379Z,0.72
2023-07-17T20:19:12.179Z,0.58
2023-07-17T20:20:51.888Z,0.42
2023-07-17T20:22:31.670Z,0.35
2023-07-17T20:24:11.455Z,0.32
2023-07-17T20:25:51.193Z,0.3
2023-07-17T20:27:31.028Z,0.29
2023-07-17T20:29:10.760Z,0.3
2023-07-17T20:30:50.617Z,0.24
2023-07-17T20:32:30.259Z,0.28
2023-07-17T20:34:10.037Z,0.23
2023-07-17T20:35:49.803Z,0.25
2023-07-17T20:37:29.572Z,0.23
2023-07-17T20:39:09.329Z,0.22
2023-07-17T20:40:49.107Z,0.24
2023-07-17T20:42:28.871Z,0.23
2023-07-17T20:44:08.718Z,0.22
2023-07-17T20:45:48.568Z,0.23
2023-07-17T20:47:28.283Z,0.24
2023-07-17T20:49:07.988Z,0.21
2023-07-17T20:50:47.713Z,0.25
2023-07-17T20:52:27.486Z,0.22
2023-07-17T20:54:07.324Z,0.22
2023-07-17T20:55:47.030Z,0.23
2023-07-17T20:57:26.805Z,0.25
2023-07-17T20:59:06.546Z,0.22
2023-07-17T21:00:46.315Z,0.24
2023-07-17T21:02:26.128Z,0.24
2023-07-17T21:04:05.924Z,0.24
2023-07-17T21:05:45.681Z,0.22
2023-07-17T21:07:25.430Z,0.23
2023-07-17T21:09:05.212Z,0.23
2023-07-17T21:10:44.929Z,0.22
2023-07-17T21:12:24.681Z,0.23
2023-07-17T21:14:04.456Z,0.23
2023-07-17T21:15:44.222Z,0.21
2023-07-17T21:17:23.992Z,0.24
2023-07-17T21:19:03.856Z,0.25
2023-07-17T21:20:43.536Z,0.25
2023-07-17T21:22:23.341Z,0.25
2023-07-17T21:24:03.076Z,0.24
2023-07-17T21:25:42.835Z,0.24
2023-07-17T21:27:22.673Z,0.22
2023-07-17T21:29:02.363Z,0.21
2023-07-17T21:30:42.128Z,0.22
2023-07-17T21:32:21.955Z,0.2
2023-07-17T21:34:01.701Z,0.19
2023-07-17T21:35:41.538Z,0.2
2023-07-17T21:37:21.236Z,0.19